sensor_id;sensor_type;location;lat;lon;timestamp;pressure;altitude;pressure_sealevel;temperature
13219;BMP180;6674;49.152;11.918;2023-05-15T00:02:20;95517.88;;;11.80
13219;BMP180;6674;49.152;11.918;2023-05-15T00:04:47;95506.34;;;11.71
13219;BMP180;6674;49.152;11.918;2023-05-15T00:07:14;95511.09;;;11.63
13219;BMP180;6674;49.152;11.918;2023-05-15T00:09:40;95510.06;;;11.48
13219;BMP180;6674;49.152;11.918;2023-05-15T00:12:08;95515.47;;;11.63
13219;BMP180;6674;49.152;11.918;2023-05-15T00:14:34;95516.53;;;11.62
13219;BMP180;6674;49.152;11.918;2023-05-15T00:17:01;95508.56;;;11.52
13219;BMP180;6674;49.152;11.918;2023-05-15T00:19:29;95517.34;;;11.51
13219;BMP180;6674;49.152;11.918;2023-05-15T00:21:56;95515.13;;;11.31
13219;BMP180;6674;49.152;11.918;2023-05-15T00:24:22;95508.25;;;11.48
13219;BMP180;6674;49.152;11.918;2023-05-15T00:26:49;95504.28;;;11.57
13219;BMP180;6674;49.152;11.918;2023-05-15T00:29:16;95503.84;;;11.60
13219;BMP180;6674;49.152;11.918;2023-05-15T00:31:42;95507.28;;;11.65
13219;BMP180;6674;49.152;11.918;2023-05-15T00:34:09;95509.84;;;11.65
13219;BMP180;6674;49.152;11.918;2023-05-15T00:36:38;95506.81;;;11.68
13219;BMP180;6674;49.152;11.918;2023-05-15T00:39:05;95503.19;;;11.69
13219;BMP180;6674;49.152;11.918;2023-05-15T00:41:32;95499.63;;;11.70
13219;BMP180;6674;49.152;11.918;2023-05-15T00:43:59;95501.66;;;11.68
13219;BMP180;6674;49.152;11.918;2023-05-15T00:46:30;95497.94;;;11.64
13219;BMP180;6674;49.152;11.918;2023-05-15T00:48:57;95498.03;;;11.69
13219;BMP180;6674;49.152;11.918;2023-05-15T00:51:25;95501.41;;;11.70
13219;BMP180;6674;49.152;11.918;2023-05-15T00:53:54;95498.38;;;11.73
13219;BMP180;6674;49.152;11.918;2023-05-15T00:56:21;95492.69;;;11.60
13219;BMP180;6674;49.152;11.918;2023-05-15T00:58:48;95493.34;;;11.66
13219;BMP180;6674;49.152;11.918;2023-05-15T01:01:16;95494.22;;;11.72
13219;BMP180;6674;49.152;11.918;2023-05-15T01:03:43;95491.94;;;11.75
13219;BMP180;6674;49.152;11.918;2023-05-15T01:06:10;95492.81;;;11.81
13219;BMP180;6674;49.152;11.918;2023-05-15T01:08:38;95494.16;;;11.83
13219;BMP180;6674;49.152;11.918;2023-05-15T01:11:07;95499.53;;;11.82
13219;BMP180;6674;49.152;11.918;2023-05-15T01:13:35;95497.75;;;11.82
13219;BMP180;6674;49.152;11.918;2023-05-15T01:16:03;95492.34;;;11.84
13219;BMP180;6674;49.152;11.918;2023-05-15T01:18:30;95495.72;;;11.84
13219;BMP180;6674;49.152;11.918;2023-05-15T01:21:10;95492.56;;;11.82
13219;BMP180;6674;49.152;11.918;2023-05-15T01:23:49;95490.22;;;11.81
13219;BMP180;6674;49.152;11.918;2023-05-15T01:26:42;95483.50;;;11.80
13219;BMP180;6674;49.152;11.918;2023-05-15T01:29:22;95483.47;;;11.63
13219;BMP180;6674;49.152;11.918;2023-05-15T01:31:54;95483.47;;;11.63
13219;BMP180;6674;49.152;11.918;2023-05-15T01:34:28;95488.66;;;11.63
13219;BMP180;6674;49.152;11.918;2023-05-15T01:36:59;95479.94;;;11.53
13219;BMP180;6674;49.152;11.918;2023-05-15T01:39:31;95485.53;;;11.62
13219;BMP180;6674;49.152;11.918;2023-05-15T01:42:02;95483.03;;;11.66
13219;BMP180;6674;49.152;11.918;2023-05-15T01:44:33;95476.75;;;11.63
13219;BMP180;6674;49.152;11.918;2023-05-15T01:47:05;95479.09;;;11.64
13219;BMP180;6674;49.152;11.918;2023-05-15T01:49:32;95484.09;;;11.70
13219;BMP180;6674;49.152;11.918;2023-05-15T01:52:05;95479.50;;;11.72
13219;BMP180;6674;49.152;11.918;2023-05-15T01:54:35;95476.44;;;11.75
13219;BMP180;6674;49.152;11.918;2023-05-15T01:57:02;95475.66;;;11.75
13219;BMP180;6674;49.152;11.918;2023-05-15T01:59:31;95475.22;;;11.78
13219;BMP180;6674;49.152;11.918;2023-05-15T02:01:59;95475.97;;;11.78
13219;BMP180;6674;49.152;11.918;2023-05-15T02:04:26;95484.81;;;11.82
13219;BMP180;6674;49.152;11.918;2023-05-15T02:06:53;95480.22;;;11.84
13219;BMP180;6674;49.152;11.918;2023-05-15T02:09:21;95482.53;;;11.86
13219;BMP180;6674;49.152;11.918;2023-05-15T02:11:49;95480.22;;;11.84
13219;BMP180;6674;49.152;11.918;2023-05-15T02:14:17;95485.84;;;11.81
13219;BMP180;6674;49.152;11.918;2023-05-15T02:16:46;95479.88;;;11.81
13219;BMP180;6674;49.152;11.918;2023-05-15T02:19:13;95480.59;;;11.76
13219;BMP180;6674;49.152;11.918;2023-05-15T02:21:40;95477.44;;;11.74
13219;BMP180;6674;49.152;11.918;2023-05-15T02:24:06;95480.59;;;11.76
13219;BMP180;6674;49.152;11.918;2023-05-15T02:26:41;95479.34;;;11.79
13219;BMP180;6674;49.152;11.918;2023-05-15T02:29:18;95469.31;;;11.82
13219;BMP180;6674;49.152;11.918;2023-05-15T02:31:54;95477.63;;;11.84
13219;BMP180;6674;49.152;11.918;2023-05-15T02:34:25;95467.31;;;11.84
13219;BMP180;6674;49.152;11.918;2023-05-15T02:36:56;95466.34;;;11.74
13219;BMP180;6674;49.152;11.918;2023-05-15T02:39:26;95463.84;;;11.79
13219;BMP180;6674;49.152;11.918;2023-05-15T02:41:55;95448.19;;;11.85
13219;BMP180;6674;49.152;11.918;2023-05-15T02:44:22;95459.13;;;11.92
13219;BMP180;6674;49.152;11.918;2023-05-15T02:46:51;95454.53;;;11.94
13219;BMP180;6674;49.152;11.918;2023-05-15T02:49:19;95456.09;;;11.95
13219;BMP180;6674;49.152;11.918;2023-05-15T02:51:47;95450.44;;;11.98
13219;BMP180;6674;49.152;11.918;2023-05-15T02:54:14;95452.03;;;11.99
13219;BMP180;6674;49.152;11.918;2023-05-15T02:56:40;95456.16;;;12.00
13219;BMP180;6674;49.152;11.918;2023-05-15T02:59:07;95452.81;;;12.00
13219;BMP180;6674;49.152;11.918;2023-05-15T03:01:34;95451.22;;;11.99
13219;BMP180;6674;49.152;11.918;2023-05-15T03:04:02;95456.56;;;11.92
13219;BMP180;6674;49.152;11.918;2023-05-15T03:06:29;95461.09;;;11.85
13219;BMP180;6674;49.152;11.918;2023-05-15T03:08:57;95449.84;;;11.91
13219;BMP180;6674;49.152;11.918;2023-05-15T03:11:23;95447.78;;;11.93
13219;BMP180;6674;49.152;11.918;2023-05-15T03:13:50;95446.06;;;11.82
13219;BMP180;6674;49.152;11.918;2023-05-15T03:16:17;95448.50;;;11.89
13219;BMP180;6674;49.152;11.918;2023-05-15T03:18:43;95446.22;;;11.92
13219;BMP180;6674;49.152;11.918;2023-05-15T03:21:12;95446.78;;;11.94
13219;BMP180;6674;49.152;11.918;2023-05-15T03:23:38;95449.03;;;11.91
13219;BMP180;6674;49.152;11.918;2023-05-15T03:26:05;95447.78;;;11.93
13219;BMP180;6674;49.152;11.918;2023-05-15T03:28:32;95452.50;;;11.96
13219;BMP180;6674;49.152;11.918;2023-05-15T03:30:58;95446.06;;;11.99
13219;BMP180;6674;49.152;11.918;2023-05-15T03:33:25;95441.69;;;11.99
13219;BMP180;6674;49.152;11.918;2023-05-15T03:35:52;95446.88;;;11.99
13219;BMP180;6674;49.152;11.918;2023-05-15T03:38:20;95440.66;;;12.00
13219;BMP180;6674;49.152;11.918;2023-05-15T03:40:46;95441.84;;;11.93
13219;BMP180;6674;49.152;11.918;2023-05-15T03:43:13;95430.78;;;11.97
13219;BMP180;6674;49.152;11.918;2023-05-15T03:45:40;95431.59;;;11.98
13219;BMP180;6674;49.152;11.918;2023-05-15T03:48:06;95428.19;;;11.97
13219;BMP180;6674;49.152;11.918;2023-05-15T03:50:33;95431.81;;;11.96
13219;BMP180;6674;49.152;11.918;2023-05-15T03:53:00;95438.53;;;11.97
13219;BMP180;6674;49.152;11.918;2023-05-15T03:55:28;95427.44;;;11.97
13219;BMP180;6674;49.152;11.918;2023-05-15T03:57:55;95430.78;;;11.97
13219;BMP180;6674;49.152;11.918;2023-05-15T04:00:22;95431.81;;;11.96
13219;BMP180;6674;49.152;11.918;2023-05-15T04:02:49;95422.50;;;11.95
13219;BMP180;6674;49.152;11.918;2023-05-15T04:05:15;95421.19;;;11.93
13219;BMP180;6674;49.152;11.918;2023-05-15T04:07:44;95418.81;;;11.91
13219;BMP180;6674;49.152;11.918;2023-05-15T04:10:10;95415.13;;;11.87
13219;BMP180;6674;49.152;11.918;2023-05-15T04:12:38;95421.34;;;11.86
13219;BMP180;6674;49.152;11.918;2023-05-15T04:15:16;95420.53;;;11.86
13219;BMP180;6674;49.152;11.918;2023-05-15T04:17:43;95430.09;;;11.85
13219;BMP180;6674;49.152;11.918;2023-05-15T04:20:11;95427.28;;;11.87
13219;BMP180;6674;49.152;11.918;2023-05-15T04:22:38;95427.03;;;11.88
13219;BMP180;6674;49.152;11.918;2023-05-15T04:25:05;95420.38;;;11.92
13219;BMP180;6674;49.152;11.918;2023-05-15T04:27:33;95420.38;;;11.92
13219;BMP180;6674;49.152;11.918;2023-05-15T04:30:03;95421.94;;;11.93
13219;BMP180;6674;49.152;11.918;2023-05-15T04:32:31;95423.28;;;11.96
13219;BMP180;6674;49.152;11.918;2023-05-15T04:34:58;95419.44;;;11.98
13219;BMP180;6674;49.152;11.918;2023-05-15T04:37:25;95414.72;;;11.95
13219;BMP180;6674;49.152;11.918;2023-05-15T04:39:51;95432.59;;;11.97
13219;BMP180;6674;49.152;11.918;2023-05-15T04:42:18;95432.38;;;11.98
13219;BMP180;6674;49.152;11.918;2023-05-15T04:44:45;95427.72;;;12.00
13219;BMP180;6674;49.152;11.918;2023-05-15T04:47:13;95430.88;;;12.02
13219;BMP180;6674;49.152;11.918;2023-05-15T04:49:40;95426.03;;;12.06
13219;BMP180;6674;49.152;11.918;2023-05-15T04:52:07;95432.50;;;12.08
13219;BMP180;6674;49.152;11.918;2023-05-15T04:54:34;95432.28;;;12.09
13219;BMP180;6674;49.152;11.918;2023-05-15T04:57:01;95422.47;;;12.11
13219;BMP180;6674;49.152;11.918;2023-05-15T04:59:27;95423.75;;;12.09
13219;BMP180;6674;49.152;11.918;2023-05-15T05:01:55;95423.75;;;12.09
13219;BMP180;6674;49.152;11.918;2023-05-15T05:04:23;95428.84;;;12.04
13219;BMP180;6674;49.152;11.918;2023-05-15T05:06:50;95415.53;;;11.96
13219;BMP180;6674;49.152;11.918;2023-05-15T05:09:18;95428.69;;;11.94
13219;BMP180;6674;49.152;11.918;2023-05-15T05:11:44;95435.25;;;11.85
13219;BMP180;6674;49.152;11.918;2023-05-15T05:14:12;95425.38;;;11.82
13219;BMP180;6674;49.152;11.918;2023-05-15T05:16:40;95424.63;;;11.82
13219;BMP180;6674;49.152;11.918;2023-05-15T05:19:07;95438.22;;;11.77
13219;BMP180;6674;49.152;11.918;2023-05-15T05:21:36;95436.53;;;11.66
13219;BMP180;6674;49.152;11.918;2023-05-15T05:24:02;95437.06;;;11.68
13219;BMP180;6674;49.152;11.918;2023-05-15T05:26:29;95435.72;;;11.66
13219;BMP180;6674;49.152;11.918;2023-05-15T05:28:56;95431.34;;;11.66
13219;BMP180;6674;49.152;11.918;2023-05-15T05:31:23;95434.31;;;11.59
13219;BMP180;6674;49.152;11.918;2023-05-15T05:33:49;95434.72;;;11.67
13219;BMP180;6674;49.152;11.918;2023-05-15T05:36:17;95438.53;;;11.64
13219;BMP180;6674;49.152;11.918;2023-05-15T05:38:45;95436.84;;;11.70
13219;BMP180;6674;49.152;11.918;2023-05-15T05:41:13;95439.50;;;11.75
13219;BMP180;6674;49.152;11.918;2023-05-15T05:43:42;95439.66;;;11.68
13219;BMP180;6674;49.152;11.918;2023-05-15T05:46:09;95437.06;;;11.68
13219;BMP180;6674;49.152;11.918;2023-05-15T05:48:36;95440.50;;;11.74
13219;BMP180;6674;49.152;11.918;2023-05-15T05:51:04;95445.44;;;11.75
13219;BMP180;6674;49.152;11.918;2023-05-15T05:53:30;95441.28;;;11.74
13219;BMP180;6674;49.152;11.918;2023-05-15T05:55:59;95437.78;;;11.80
13219;BMP180;6674;49.152;11.918;2023-05-15T05:58:26;95437.00;;;11.80
13219;BMP180;6674;49.152;11.918;2023-05-15T06:00:53;95449.69;;;11.81
13219;BMP180;6674;49.152;11.918;2023-05-15T06:03:19;95438.88;;;11.84
13219;BMP180;6674;49.152;11.918;2023-05-15T06:05:49;95442.78;;;11.87
13219;BMP180;6674;49.152;11.918;2023-05-15T06:08:15;95438.47;;;11.92
13219;BMP180;6674;49.152;11.918;2023-05-15T06:10:42;95433.13;;;11.99
13219;BMP180;6674;49.152;11.918;2023-05-15T06:13:11;95435.50;;;12.00
13219;BMP180;6674;49.152;11.918;2023-05-15T06:15:39;95434.00;;;12.04
13219;BMP180;6674;49.152;11.918;2023-05-15T06:18:05;95428.84;;;12.04
13219;BMP180;6674;49.152;11.918;2023-05-15T06:20:32;95432.81;;;12.11
13219;BMP180;6674;49.152;11.918;2023-05-15T06:22:59;95432.56;;;12.13
13219;BMP180;6674;49.152;11.918;2023-05-15T06:25:26;95433.13;;;12.15
13219;BMP180;6674;49.152;11.918;2023-05-15T06:27:52;95430.47;;;12.10
13219;BMP180;6674;49.152;11.918;2023-05-15T06:30:21;95434.16;;;12.14
13219;BMP180;6674;49.152;11.918;2023-05-15T06:32:48;95436.44;;;12.10
13219;BMP180;6674;49.152;11.918;2023-05-15T06:35:15;95435.00;;;12.19
13219;BMP180;6674;49.152;11.918;2023-05-15T06:37:41;95432.25;;;12.26
13219;BMP180;6674;49.152;11.918;2023-05-15T06:40:09;95432.84;;;12.33
13219;BMP180;6674;49.152;11.918;2023-05-15T06:42:35;95440.75;;;12.43
13219;BMP180;6674;49.152;11.918;2023-05-15T06:45:02;95441.78;;;12.42
13219;BMP180;6674;49.152;11.918;2023-05-15T06:47:31;95442.38;;;12.48
13219;BMP180;6674;49.152;11.918;2023-05-15T06:49:57;95434.22;;;12.56
13219;BMP180;6674;49.152;11.918;2023-05-15T06:52:24;95441.97;;;12.56
13219;BMP180;6674;49.152;11.918;2023-05-15T06:54:51;95444.09;;;12.59
13219;BMP180;6674;49.152;11.918;2023-05-15T06:57:18;95434.81;;;12.63
13219;BMP180;6674;49.152;11.918;2023-05-15T06:59:45;95436.56;;;12.58
13219;BMP180;6674;49.152;11.918;2023-05-15T07:02:11;95446.28;;;12.67
13219;BMP180;6674;49.152;11.918;2023-05-15T07:04:40;95441.47;;;12.76
13219;BMP180;6674;49.152;11.918;2023-05-15T07:07:06;95434.75;;;12.80
13219;BMP180;6674;49.152;11.918;2023-05-15T07:09:33;95437.94;;;12.82
13219;BMP180;6674;49.152;11.918;2023-05-15T07:11:59;95438.06;;;12.92
13219;BMP180;6674;49.152;11.918;2023-05-15T07:14:26;95443.34;;;13.01
13219;BMP180;6674;49.152;11.918;2023-05-15T07:16:53;95441.88;;;13.10
13219;BMP180;6674;49.152;11.918;2023-05-15T07:19:19;95450.00;;;13.19
13219;BMP180;6674;49.152;11.918;2023-05-15T07:21:47;95442.84;;;13.26
13219;BMP180;6674;49.152;11.918;2023-05-15T07:24:14;95445.53;;;13.36
13219;BMP180;6674;49.152;11.918;2023-05-15T07:26:41;95445.44;;;13.52
13219;BMP180;6674;49.152;11.918;2023-05-15T07:29:07;95444.44;;;13.58
13219;BMP180;6674;49.152;11.918;2023-05-15T07:31:34;95443.72;;;13.62
13219;BMP180;6674;49.152;11.918;2023-05-15T07:34:02;95436.47;;;13.64
13219;BMP180;6674;49.152;11.918;2023-05-15T07:36:29;95444.59;;;13.73
13219;BMP180;6674;49.152;11.918;2023-05-15T07:38:57;95433.81;;;13.85
13219;BMP180;6674;49.152;11.918;2023-05-15T07:41:23;95427.38;;;13.93
13219;BMP180;6674;49.152;11.918;2023-05-15T07:43:50;95428.50;;;14.02
13219;BMP180;6674;49.152;11.918;2023-05-15T07:46:16;95429.63;;;14.11
13219;BMP180;6674;49.152;11.918;2023-05-15T07:48:43;95433.84;;;14.22
13219;BMP180;6674;49.152;11.918;2023-05-15T07:51:10;95431.31;;;14.31
13219;BMP180;6674;49.152;11.918;2023-05-15T07:53:37;95435.19;;;14.34
13219;BMP180;6674;49.152;11.918;2023-05-15T07:56:05;95429.53;;;14.37
13219;BMP180;6674;49.152;11.918;2023-05-15T07:58:33;95439.06;;;14.26
13219;BMP180;6674;49.152;11.918;2023-05-15T08:01:02;95427.72;;;14.37
13219;BMP180;6674;49.152;11.918;2023-05-15T08:03:32;95437.06;;;14.38
13219;BMP180;6674;49.152;11.918;2023-05-15T08:05:59;95435.09;;;14.55
13219;BMP180;6674;49.152;11.918;2023-05-15T08:08:25;95423.72;;;14.71
13219;BMP180;6674;49.152;11.918;2023-05-15T08:10:52;95426.72;;;14.94
13219;BMP180;6674;49.152;11.918;2023-05-15T08:13:20;95423.88;;;15.06
13219;BMP180;6674;49.152;11.918;2023-05-15T08:15:47;95425.94;;;15.04
13219;BMP180;6674;49.152;11.918;2023-05-15T08:18:13;95435.28;;;15.00
13219;BMP180;6674;49.152;11.918;2023-05-15T08:20:40;95436.56;;;14.97
13219;BMP180;6674;49.152;11.918;2023-05-15T08:23:07;95427.78;;;15.08
13219;BMP180;6674;49.152;11.918;2023-05-15T08:25:34;95438.69;;;15.15
13219;BMP180;6674;49.152;11.918;2023-05-15T08:28:01;95430.19;;;15.29
13219;BMP180;6674;49.152;11.918;2023-05-15T08:30:29;95430.72;;;15.26
13219;BMP180;6674;49.152;11.918;2023-05-15T08:32:56;95428.13;;;15.31
13219;BMP180;6674;49.152;11.918;2023-05-15T08:35:22;95432.06;;;15.53
13219;BMP180;6674;49.152;11.918;2023-05-15T08:37:49;95436.50;;;15.63
13219;BMP180;6674;49.152;11.918;2023-05-15T08:40:18;95439.59;;;15.45
13219;BMP180;6674;49.152;11.918;2023-05-15T08:42:47;95435.41;;;15.29
13219;BMP180;6674;49.152;11.918;2023-05-15T08:45:15;95430.19;;;15.24
13219;BMP180;6674;49.152;11.918;2023-05-15T08:47:43;95435.38;;;15.19
13219;BMP180;6674;49.152;11.918;2023-05-15T08:50:11;95431.16;;;15.13
13219;BMP180;6674;49.152;11.918;2023-05-15T08:52:40;95429.16;;;15.25
13219;BMP180;6674;49.152;11.918;2023-05-15T08:55:08;95427.31;;;15.16
13219;BMP180;6674;49.152;11.918;2023-05-15T08:57:36;95434.84;;;15.17
13219;BMP180;6674;49.152;11.918;2023-05-15T09:00:04;95436.09;;;15.10
13219;BMP180;6674;49.152;11.918;2023-05-15T09:02:33;95431.13;;;15.04
13219;BMP180;6674;49.152;11.918;2023-05-15T09:05:01;95425.69;;;15.05
13219;BMP180;6674;49.152;11.918;2023-05-15T09:07:29;95425.00;;;15.24
13219;BMP180;6674;49.152;11.918;2023-05-15T09:09:56;95428.69;;;15.38
13219;BMP180;6674;49.152;11.918;2023-05-15T09:12:24;95418.31;;;15.58
13219;BMP180;6674;49.152;11.918;2023-05-15T09:14:51;95421.41;;;15.55
13219;BMP180;6674;49.152;11.918;2023-05-15T09:17:17;95422.47;;;15.64
13219;BMP180;6674;49.152;11.918;2023-05-15T09:19:44;95413.38;;;15.91
13219;BMP180;6674;49.152;11.918;2023-05-15T09:22:16;95416.75;;;16.16
13219;BMP180;6674;49.152;11.918;2023-05-15T09:24:48;95415.16;;;16.35
13219;BMP180;6674;49.152;11.918;2023-05-15T09:27:16;95409.94;;;16.60
13219;BMP180;6674;49.152;11.918;2023-05-15T09:29:43;95396.81;;;16.84
13219;BMP180;6674;49.152;11.918;2023-05-15T09:32:11;95401.25;;;16.74
13219;BMP180;6674;49.152;11.918;2023-05-15T09:34:40;95401.84;;;16.66
13219;BMP180;6674;49.152;11.918;2023-05-15T09:37:09;95406.78;;;16.63
13219;BMP180;6674;49.152;11.918;2023-05-15T09:39:41;95398.97;;;16.58
13219;BMP180;6674;49.152;11.918;2023-05-15T09:42:09;95385.25;;;16.42
13219;BMP180;6674;49.152;11.918;2023-05-15T09:44:40;95392.97;;;16.67
13219;BMP180;6674;49.152;11.918;2023-05-15T09:47:08;95399.47;;;16.75
13219;BMP180;6674;49.152;11.918;2023-05-15T09:49:36;95389.81;;;16.75
13219;BMP180;6674;49.152;11.918;2023-05-15T09:52:06;95396.66;;;16.56
13219;BMP180;6674;49.152;11.918;2023-05-15T09:54:34;95395.09;;;16.50
13219;BMP180;6674;49.152;11.918;2023-05-15T09:57:08;95399.56;;;16.45
13219;BMP180;6674;49.152;11.918;2023-05-15T09:59:42;95386.53;;;16.40
13219;BMP180;6674;49.152;11.918;2023-05-15T10:02:12;95386.81;;;16.43
13219;BMP180;6674;49.152;11.918;2023-05-15T10:04:39;95382.88;;;16.51
13219;BMP180;6674;49.152;11.918;2023-05-15T10:07:06;95389.13;;;16.55
13219;BMP180;6674;49.152;11.918;2023-05-15T10:09:33;95385.97;;;16.58
13219;BMP180;6674;49.152;11.918;2023-05-15T10:12:00;95378.13;;;16.63
13219;BMP180;6674;49.152;11.918;2023-05-15T10:14:28;95379.91;;;16.72
13219;BMP180;6674;49.152;11.918;2023-05-15T10:16:56;95373.41;;;16.80
13219;BMP180;6674;49.152;11.918;2023-05-15T10:19:24;95378.28;;;16.91
13219;BMP180;6674;49.152;11.918;2023-05-15T10:21:53;95383.69;;;17.04
13219;BMP180;6674;49.152;11.918;2023-05-15T10:24:22;95380.00;;;17.15
13219;BMP180;6674;49.152;11.918;2023-05-15T10:26:51;95379.88;;;17.40
13219;BMP180;6674;49.152;11.918;2023-05-15T10:29:21;95370.78;;;17.71
13219;BMP180;6674;49.152;11.918;2023-05-15T10:31:51;95373.75;;;17.87
13219;BMP180;6674;49.152;11.918;2023-05-15T10:34:19;95365.94;;;17.87
13219;BMP180;6674;49.152;11.918;2023-05-15T10:36:48;95369.66;;;17.81
13219;BMP180;6674;49.152;11.918;2023-05-15T10:39:16;95364.22;;;17.73
13219;BMP180;6674;49.152;11.918;2023-05-15T10:41:44;95372.94;;;17.64
13219;BMP180;6674;49.152;11.918;2023-05-15T10:44:13;95377.66;;;17.57
13219;BMP180;6674;49.152;11.918;2023-05-15T10:46:40;95376.69;;;17.48
13219;BMP180;6674;49.152;11.918;2023-05-15T10:49:08;95368.91;;;17.43
13219;BMP180;6674;49.152;11.918;2023-05-15T10:51:36;95367.34;;;17.42
13219;BMP180;6674;49.152;11.918;2023-05-15T10:54:04;95360.34;;;17.32
13219;BMP180;6674;49.152;11.918;2023-05-15T10:56:32;95359.03;;;17.35
13219;BMP180;6674;49.152;11.918;2023-05-15T10:59:04;95356.47;;;17.30
13219;BMP180;6674;49.152;11.918;2023-05-15T11:01:32;95356.53;;;17.20
13219;BMP180;6674;49.152;11.918;2023-05-15T11:04:11;95358.63;;;17.18
13219;BMP180;6674;49.152;11.918;2023-05-15T11:06:39;95355.44;;;17.26
13219;BMP180;6674;49.152;11.918;2023-05-15T11:09:34;95356.88;;;17.47
13219;BMP180;6674;49.152;11.918;2023-05-15T11:12:02;95352.59;;;17.61
13219;BMP180;6674;49.152;11.918;2023-05-15T11:14:30;95358.28;;;17.68
13219;BMP180;6674;49.152;11.918;2023-05-15T11:16:58;95358.06;;;17.64
13219;BMP180;6674;49.152;11.918;2023-05-15T11:19:33;95362.03;;;17.52
13219;BMP180;6674;49.152;11.918;2023-05-15T11:22:01;95353.22;;;17.48
13219;BMP180;6674;49.152;11.918;2023-05-15T11:24:29;95346.44;;;17.47
13219;BMP180;6674;49.152;11.918;2023-05-15T11:26:59;95334.44;;;17.51
13219;BMP180;6674;49.152;11.918;2023-05-15T11:29:26;95335.94;;;17.57
13219;BMP180;6674;49.152;11.918;2023-05-15T11:31:53;95332.94;;;17.73
13219;BMP180;6674;49.152;11.918;2023-05-15T11:34:29;95336.28;;;18.07
13219;BMP180;6674;49.152;11.918;2023-05-15T11:36:58;95325.44;;;18.23
13219;BMP180;6674;49.152;11.918;2023-05-15T11:39:25;95337.50;;;18.42
13219;BMP180;6674;49.152;11.918;2023-05-15T11:41:52;95334.94;;;18.60
13219;BMP180;6674;49.152;11.918;2023-05-15T11:44:20;95329.63;;;18.65
13219;BMP180;6674;49.152;11.918;2023-05-15T11:46:48;95317.47;;;18.98
13219;BMP180;6674;49.152;11.918;2023-05-15T11:49:17;95323.16;;;19.41
13219;BMP180;6674;49.152;11.918;2023-05-15T11:51:47;95331.59;;;19.51
13219;BMP180;6674;49.152;11.918;2023-05-15T11:54:15;95330.31;;;19.36
13219;BMP180;6674;49.152;11.918;2023-05-15T11:56:43;95346.84;;;19.13
13219;BMP180;6674;49.152;11.918;2023-05-15T11:59:12;95341.81;;;18.93
13219;BMP180;6674;49.152;11.918;2023-05-15T12:01:40;95343.72;;;18.69
13219;BMP180;6674;49.152;11.918;2023-05-15T12:04:11;95337.16;;;18.49
13219;BMP180;6674;49.152;11.918;2023-05-15T12:06:38;95344.19;;;18.25
13219;BMP180;6674;49.152;11.918;2023-05-15T12:09:05;95345.09;;;18.16
13219;BMP180;6674;49.152;11.918;2023-05-15T12:11:33;95345.41;;;18.09
13219;BMP180;6674;49.152;11.918;2023-05-15T12:14:00;95339.69;;;18.02
13219;BMP180;6674;49.152;11.918;2023-05-15T12:16:27;95339.25;;;17.95
13219;BMP180;6674;49.152;11.918;2023-05-15T12:18:56;95338.03;;;17.88
13219;BMP180;6674;49.152;11.918;2023-05-15T12:21:25;95332.28;;;17.86
13219;BMP180;6674;49.152;11.918;2023-05-15T12:23:52;95339.41;;;17.80
13219;BMP180;6674;49.152;11.918;2023-05-15T12:26:20;95333.47;;;17.75
13219;BMP180;6674;49.152;11.918;2023-05-15T12:28:49;95332.63;;;17.46
13219;BMP180;6674;49.152;11.918;2023-05-15T12:31:17;95344.31;;;17.11
13219;BMP180;6674;49.152;11.918;2023-05-15T12:33:44;95346.75;;;16.97
13219;BMP180;6674;49.152;11.918;2023-05-15T12:36:11;95344.63;;;16.41
13219;BMP180;6674;49.152;11.918;2023-05-15T12:38:38;95345.94;;;16.39
13219;BMP180;6674;49.152;11.918;2023-05-15T12:41:05;95331.41;;;16.28
13219;BMP180;6674;49.152;11.918;2023-05-15T12:43:31;95331.91;;;16.25
13219;BMP180;6674;49.152;11.918;2023-05-15T12:46:00;95324.06;;;16.40
13219;BMP180;6674;49.152;11.918;2023-05-15T12:48:30;95326.69;;;16.45
13219;BMP180;6674;49.152;11.918;2023-05-15T12:51:03;95310.75;;;16.46
13219;BMP180;6674;49.152;11.918;2023-05-15T12:53:31;95320.91;;;16.48
13219;BMP180;6674;49.152;11.918;2023-05-15T12:55:59;95315.88;;;16.71
13219;BMP180;6674;49.152;11.918;2023-05-15T12:58:26;95316.25;;;16.98
13219;BMP180;6674;49.152;11.918;2023-05-15T13:00:54;95315.63;;;17.21
13219;BMP180;6674;49.152;11.918;2023-05-15T13:03:23;95312.28;;;17.48
13219;BMP180;6674;49.152;11.918;2023-05-15T13:05:52;95316.28;;;17.69
13219;BMP180;6674;49.152;11.918;2023-05-15T13:08:19;95311.91;;;17.93
13219;BMP180;6674;49.152;11.918;2023-05-15T13:10:46;95313.47;;;18.22
13219;BMP180;6674;49.152;11.918;2023-05-15T13:13:21;95308.00;;;18.42
13219;BMP180;6674;49.152;11.918;2023-05-15T13:15:48;95319.94;;;18.71
13219;BMP180;6674;49.152;11.918;2023-05-15T13:18:16;95314.81;;;19.02
13219;BMP180;6674;49.152;11.918;2023-05-15T13:20:47;95309.38;;;19.17
13219;BMP180;6674;49.152;11.918;2023-05-15T13:23:17;95323.94;;;19.23
13219;BMP180;6674;49.152;11.918;2023-05-15T13:25:43;95313.47;;;19.42
13219;BMP180;6674;49.152;11.918;2023-05-15T13:28:10;95312.34;;;19.11
13219;BMP180;6674;49.152;11.918;2023-05-15T13:30:38;95310.38;;;19.03
13219;BMP180;6674;49.152;11.918;2023-05-15T13:33:06;95310.38;;;19.03
13219;BMP180;6674;49.152;11.918;2023-05-15T13:35:34;95310.78;;;18.92
13219;BMP180;6674;49.152;11.918;2023-05-15T13:38:02;95311.00;;;18.95
13219;BMP180;6674;49.152;11.918;2023-05-15T13:40:30;95313.59;;;18.95
13219;BMP180;6674;49.152;11.918;2023-05-15T13:42:59;95312.53;;;18.96
13219;BMP180;6674;49.152;11.918;2023-05-15T13:45:26;95310.44;;;18.98
13219;BMP180;6674;49.152;11.918;2023-05-15T13:47:53;95312.22;;;19.02
13219;BMP180;6674;49.152;11.918;2023-05-15T13:50:20;95310.38;;;19.03
13219;BMP180;6674;49.152;11.918;2023-05-15T13:52:47;95303.31;;;19.03
13219;BMP180;6674;49.152;11.918;2023-05-15T13:55:15;95306.13;;;19.07
13219;BMP180;6674;49.152;11.918;2023-05-15T13:57:42;95298.41;;;19.34
13219;BMP180;6674;49.152;11.918;2023-05-15T14:00:11;95293.84;;;19.57
13219;BMP180;6674;49.152;11.918;2023-05-15T14:02:38;95293.03;;;19.75
13219;BMP180;6674;49.152;11.918;2023-05-15T14:05:05;95302.13;;;19.96
13219;BMP180;6674;49.152;11.918;2023-05-15T14:07:32;95309.91;;;20.28
13219;BMP180;6674;49.152;11.918;2023-05-15T14:09:59;95298.00;;;20.35
13219;BMP180;6674;49.152;11.918;2023-05-15T14:12:27;95301.38;;;20.49
13219;BMP180;6674;49.152;11.918;2023-05-15T14:14:54;95300.59;;;20.48